sensor_id;sensor_type;location;lat;lon;timestamp;pressure;altitude;pressure_sealevel;temperature
71807;BMP280;59655;42.590;23.364;2023-04-25T00:01:59;90812.00;;;10.78
71807;BMP280;59655;42.590;23.364;2023-04-25T00:04:25;90808.47;;;10.93
71807;BMP280;59655;42.590;23.364;2023-04-25T00:06:52;90799.81;;;10.92
71807;BMP280;59655;42.590;23.364;2023-04-25T00:09:17;90790.00;;;10.85
71807;BMP280;59655;42.590;23.364;2023-04-25T00:11:43;90785.16;;;11.01
71807;BMP280;59655;42.590;23.364;2023-04-25T00:14:08;90788.53;;;11.11
71807;BMP280;59655;42.590;23.364;2023-04-25T00:16:35;90788.84;;;11.15
71807;BMP280;59655;42.590;23.364;2023-04-25T00:19:01;90782.25;;;11.07
71807;BMP280;59655;42.590;23.364;2023-04-25T00:21:27;90779.31;;;11.12
71807;BMP280;59655;42.590;23.364;2023-04-25T00:23:54;90781.28;;;11.12
71807;BMP280;59655;42.590;23.364;2023-04-25T00:26:19;90771.91;;;11.11
71807;BMP280;59655;42.590;23.364;2023-04-25T00:28:46;90761.28;;;11.11
71807;BMP280;59655;42.590;23.364;2023-04-25T00:31:11;90760.88;;;11.14
71807;BMP280;59655;42.590;23.364;2023-04-25T00:33:37;90749.88;;;11.18
71807;BMP280;59655;42.590;23.364;2023-04-25T00:36:02;90737.53;;;11.13
71807;BMP280;59655;42.590;23.364;2023-04-25T00:38:28;90732.22;;;11.13
71807;BMP280;59655;42.590;23.364;2023-04-25T00:40:53;90730.28;;;11.13
71807;BMP280;59655;42.590;23.364;2023-04-25T00:43:21;90727.50;;;11.11
71807;BMP280;59655;42.590;23.364;2023-04-25T00:45:47;90721.91;;;11.07
71807;BMP280;59655;42.590;23.364;2023-04-25T00:48:17;90715.88;;;11.07
71807;BMP280;59655;42.590;23.364;2023-04-25T00:50:49;90715.19;;;11.06
71807;BMP280;59655;42.590;23.364;2023-04-25T00:53:16;90702.75;;;11.09
71807;BMP280;59655;42.590;23.364;2023-04-25T00:55:41;90693.94;;;11.06
71807;BMP280;59655;42.590;23.364;2023-04-25T00:58:07;90688.94;;;11.10
71807;BMP280;59655;42.590;23.364;2023-04-25T01:00:32;90689.59;;;11.11
71807;BMP280;59655;42.590;23.364;2023-04-25T01:02:58;90687.22;;;11.05
71807;BMP280;59655;42.590;23.364;2023-04-25T01:05:23;90679.72;;;11.02
71807;BMP280;59655;42.590;23.364;2023-04-25T01:07:49;90676.91;;;11.00
71807;BMP280;59655;42.590;23.364;2023-04-25T01:10:15;90680.38;;;10.92
71807;BMP280;59655;42.590;23.364;2023-04-25T01:12:41;90695.16;;;10.95
71807;BMP280;59655;42.590;23.364;2023-04-25T01:15:07;90698.81;;;10.90
71807;BMP280;59655;42.590;23.364;2023-04-25T01:17:34;90694.31;;;10.83
71807;BMP280;59655;42.590;23.364;2023-04-25T01:20:03;90681.31;;;10.78
71807;BMP280;59655;42.590;23.364;2023-04-25T01:22:28;90659.53;;;10.89
71807;BMP280;59655;42.590;23.364;2023-04-25T01:24:54;90657.47;;;10.97
71807;BMP280;59655;42.590;23.364;2023-04-25T01:27:20;90663.75;;;10.92
71807;BMP280;59655;42.590;23.364;2023-04-25T01:29:47;90656.47;;;10.83
71807;BMP280;59655;42.590;23.364;2023-04-25T01:32:13;90661.34;;;10.77
71807;BMP280;59655;42.590;23.364;2023-04-25T01:34:39;90671.41;;;10.78
71807;BMP280;59655;42.590;23.364;2023-04-25T01:37:04;90665.97;;;10.86
71807;BMP280;59655;42.590;23.364;2023-04-25T01:39:30;90665.41;;;10.87
71807;BMP280;59655;42.590;23.364;2023-04-25T01:41:55;90671.28;;;10.86
71807;BMP280;59655;42.590;23.364;2023-04-25T01:44:21;90681.03;;;10.83
71807;BMP280;59655;42.590;23.364;2023-04-25T01:46:47;90681.88;;;10.86
71807;BMP280;59655;42.590;23.364;2023-04-25T01:49:12;90680.63;;;10.87
71807;BMP280;59655;42.590;23.364;2023-04-25T01:51:37;90671.72;;;10.92
71807;BMP280;59655;42.590;23.364;2023-04-25T01:54:03;90681.47;;;10.89
71807;BMP280;59655;42.590;23.364;2023-04-25T01:56:32;90670.25;;;10.71
71807;BMP280;59655;42.590;23.364;2023-04-25T01:58:58;90673.34;;;10.78
71807;BMP280;59655;42.590;23.364;2023-04-25T02:01:23;90671.53;;;10.80
71807;BMP280;59655;42.590;23.364;2023-04-25T02:03:49;90675.44;;;10.79
71807;BMP280;59655;42.590;23.364;2023-04-25T02:06:14;90682.09;;;10.61
71807;BMP280;59655;42.590;23.364;2023-04-25T02:08:39;90683.19;;;10.21
71807;BMP280;59655;42.590;23.364;2023-04-25T02:11:05;90668.53;;;10.20
71807;BMP280;59655;42.590;23.364;2023-04-25T02:13:30;90666.50;;;10.38
71807;BMP280;59655;42.590;23.364;2023-04-25T02:15:56;90664.97;;;10.35
71807;BMP280;59655;42.590;23.364;2023-04-25T02:18:21;90679.69;;;10.55
71807;BMP280;59655;42.590;23.364;2023-04-25T02:20:47;90661.59;;;10.61
71807;BMP280;59655;42.590;23.364;2023-04-25T02:23:12;90667.25;;;10.48
71807;BMP280;59655;42.590;23.364;2023-04-25T02:25:38;90656.59;;;10.38
71807;BMP280;59655;42.590;23.364;2023-04-25T02:28:03;90641.72;;;10.52
71807;BMP280;59655;42.590;23.364;2023-04-25T02:30:29;90639.94;;;10.65
71807;BMP280;59655;42.590;23.364;2023-04-25T02:32:54;90626.28;;;10.68
71807;BMP280;59655;42.590;23.364;2023-04-25T02:35:19;90626.41;;;10.70
71807;BMP280;59655;42.590;23.364;2023-04-25T02:37:45;90626.28;;;10.78
71807;BMP280;59655;42.590;23.364;2023-04-25T02:40:10;90633.78;;;10.62
71807;BMP280;59655;42.590;23.364;2023-04-25T02:42:36;90631.16;;;10.72
71807;BMP280;59655;42.590;23.364;2023-04-25T02:45:02;90634.09;;;10.76
71807;BMP280;59655;42.590;23.364;2023-04-25T02:47:27;90635.78;;;10.71
71807;BMP280;59655;42.590;23.364;2023-04-25T02:49:53;90631.56;;;10.68
71807;BMP280;59655;42.590;23.364;2023-04-25T02:52:18;90644.38;;;10.52
71807;BMP280;59655;42.590;23.364;2023-04-25T02:54:43;90627.94;;;10.64
71807;BMP280;59655;42.590;23.364;2023-04-25T02:57:09;90620.00;;;10.73
71807;BMP280;59655;42.590;23.364;2023-04-25T02:59:34;90628.25;;;10.78
71807;BMP280;59655;42.590;23.364;2023-04-25T03:02:00;90622.66;;;10.73
71807;BMP280;59655;42.590;23.364;2023-04-25T03:04:26;90626.59;;;10.82
71807;BMP280;59655;42.590;23.364;2023-04-25T03:06:52;90622.41;;;10.89
71807;BMP280;59655;42.590;23.364;2023-04-25T03:09:18;90620.88;;;10.86
71807;BMP280;59655;42.590;23.364;2023-04-25T03:11:44;90623.97;;;10.92
71807;BMP280;59655;42.590;23.364;2023-04-25T03:14:10;90615.53;;;10.95
71807;BMP280;59655;42.590;23.364;2023-04-25T03:16:35;90614.03;;;10.92
71807;BMP280;59655;42.590;23.364;2023-04-25T03:19:02;90611.53;;;10.94
71807;BMP280;59655;42.590;23.364;2023-04-25T03:21:27;90599.63;;;10.95
71807;BMP280;59655;42.590;23.364;2023-04-25T03:23:52;90601.31;;;10.91
71807;BMP280;59655;42.590;23.364;2023-04-25T03:26:18;90610.84;;;10.94
71807;BMP280;59655;42.590;23.364;2023-04-25T03:28:43;90600.91;;;10.94
71807;BMP280;59655;42.590;23.364;2023-04-25T03:31:09;90601.31;;;10.91
71807;BMP280;59655;42.590;23.364;2023-04-25T03:33:34;90610.97;;;10.96
71807;BMP280;59655;42.590;23.364;2023-04-25T03:36:00;90616.25;;;10.96
71807;BMP280;59655;42.590;23.364;2023-04-25T03:38:25;90616.84;;;10.94
71807;BMP280;59655;42.590;23.364;2023-04-25T03:40:51;90620.72;;;10.93
71807;BMP280;59655;42.590;23.364;2023-04-25T03:43:16;90623.81;;;11.00
71807;BMP280;59655;42.590;23.364;2023-04-25T03:45:42;90621.31;;;10.92
71807;BMP280;59655;42.590;23.364;2023-04-25T03:48:08;90623.81;;;11.00
71807;BMP280;59655;42.590;23.364;2023-04-25T03:50:33;90620.06;;;11.03
71807;BMP280;59655;42.590;23.364;2023-04-25T03:52:59;90620.31;;;11.07
71807;BMP280;59655;42.590;23.364;2023-04-25T03:55:24;90625.09;;;11.08
71807;BMP280;59655;42.590;23.364;2023-04-25T03:57:50;90630.66;;;11.12
71807;BMP280;59655;42.590;23.364;2023-04-25T04:00:15;90620.19;;;11.14
71807;BMP280;59655;42.590;23.364;2023-04-25T04:02:41;90620.31;;;11.16
71807;BMP280;59655;42.590;23.364;2023-04-25T04:05:06;90624.09;;;11.13
71807;BMP280;59655;42.590;23.364;2023-04-25T04:07:32;90623.25;;;11.21
71807;BMP280;59655;42.590;23.364;2023-04-25T04:09:59;90622.16;;;11.24
71807;BMP280;59655;42.590;23.364;2023-04-25T04:12:24;90623.81;;;11.19
71807;BMP280;59655;42.590;23.364;2023-04-25T04:14:49;90635.13;;;11.19
71807;BMP280;59655;42.590;23.364;2023-04-25T04:17:15;90631.94;;;11.21
71807;BMP280;59655;42.590;23.364;2023-04-25T04:19:41;90630.66;;;11.22
71807;BMP280;59655;42.590;23.364;2023-04-25T04:22:06;90623.56;;;11.25
71807;BMP280;59655;42.590;23.364;2023-04-25T04:24:31;90624.81;;;11.24
71807;BMP280;59655;42.590;23.364;2023-04-25T04:26:57;90625.22;;;11.30
71807;BMP280;59655;42.590;23.364;2023-04-25T04:29:24;90629.56;;;11.25
71807;BMP280;59655;42.590;23.364;2023-04-25T04:31:50;90631.06;;;11.28
71807;BMP280;59655;42.590;23.364;2023-04-25T04:34:16;90630.66;;;11.22
71807;BMP280;59655;42.590;23.364;2023-04-25T04:36:45;90627.47;;;11.14
71807;BMP280;59655;42.590;23.364;2023-04-25T04:39:12;90626.22;;;11.25
71807;BMP280;59655;42.590;23.364;2023-04-25T04:41:37;90623.97;;;11.31
71807;BMP280;59655;42.590;23.364;2023-04-25T04:44:03;90611.94;;;11.30
71807;BMP280;59655;42.590;23.364;2023-04-25T04:46:29;90615.28;;;11.30
71807;BMP280;59655;42.590;23.364;2023-04-25T04:48:55;90618.25;;;11.34
71807;BMP280;59655;42.590;23.364;2023-04-25T04:51:21;90627.31;;;11.31
71807;BMP280;59655;42.590;23.364;2023-04-25T04:53:46;90620.59;;;11.30
71807;BMP280;59655;42.590;23.364;2023-04-25T04:56:12;90628.28;;;11.36
71807;BMP280;59655;42.590;23.364;2023-04-25T04:58:37;90620.91;;;11.34
71807;BMP280;59655;42.590;23.364;2023-04-25T05:01:03;90636.13;;;11.34
71807;BMP280;59655;42.590;23.364;2023-04-25T05:03:28;90633.19;;;11.30
71807;BMP280;59655;42.590;23.364;2023-04-25T05:05:54;90633.19;;;11.30
71807;BMP280;59655;42.590;23.364;2023-04-25T05:08:20;90641.28;;;11.32
71807;BMP280;59655;42.590;23.364;2023-04-25T05:10:45;90637.41;;;11.33
71807;BMP280;59655;42.590;23.364;2023-04-25T05:13:11;90639.75;;;11.29
71807;BMP280;59655;42.590;23.364;2023-04-25T05:15:36;90639.34;;;11.32
71807;BMP280;59655;42.590;23.364;2023-04-25T05:18:02;90634.03;;;11.32
71807;BMP280;59655;42.590;23.364;2023-04-25T05:20:27;90642.97;;;11.37
71807;BMP280;59655;42.590;23.364;2023-04-25T05:22:53;90656.53;;;11.41
71807;BMP280;59655;42.590;23.364;2023-04-25T05:25:18;90653.31;;;11.43
71807;BMP280;59655;42.590;23.364;2023-04-25T05:27:43;90658.50;;;11.40
71807;BMP280;59655;42.590;23.364;2023-04-25T05:30:09;90657.63;;;11.38
71807;BMP280;59655;42.590;23.364;2023-04-25T05:32:35;90655.13;;;11.30
71807;BMP280;59655;42.590;23.364;2023-04-25T05:35:01;90641.16;;;11.30
71807;BMP280;59655;42.590;23.364;2023-04-25T05:37:26;90646.88;;;11.36
71807;BMP280;59655;42.590;23.364;2023-04-25T05:39:52;90650.69;;;11.33
71807;BMP280;59655;42.590;23.364;2023-04-25T05:42:17;90640.44;;;11.29
71807;BMP280;59655;42.590;23.364;2023-04-25T05:44:42;90650.81;;;11.25
71807;BMP280;59655;42.590;23.364;2023-04-25T05:47:08;90652.44;;;11.21
71807;BMP280;59655;42.590;23.364;2023-04-25T05:49:34;90643.69;;;11.18
71807;BMP280;59655;42.590;23.364;2023-04-25T05:51:59;90643.25;;;11.22
71807;BMP280;59655;42.590;23.364;2023-04-25T05:54:25;90647.13;;;11.21
71807;BMP280;59655;42.590;23.364;2023-04-25T05:56:50;90651.78;;;11.10
71807;BMP280;59655;42.590;23.364;2023-04-25T05:59:15;90652.59;;;11.13
71807;BMP280;59655;42.590;23.364;2023-04-25T06:01:41;90652.91;;;11.17
71807;BMP280;59655;42.590;23.364;2023-04-25T06:04:07;90656.78;;;11.06
71807;BMP280;59655;42.590;23.364;2023-04-25T06:06:32;90665.72;;;11.11
71807;BMP280;59655;42.590;23.364;2023-04-25T06:08:57;90653.84;;;11.12
71807;BMP280;59655;42.590;23.364;2023-04-25T06:11:23;90658.47;;;11.02
71807;BMP280;59655;42.590;23.364;2023-04-25T06:13:48;90652.72;;;11.05
71807;BMP280;59655;42.590;23.364;2023-04-25T06:16:14;90652.31;;;11.09
71807;BMP280;59655;42.590;23.364;2023-04-25T06:18:39;90661.69;;;11.19
71807;BMP280;59655;42.590;23.364;2023-04-25T06:21:05;90654.72;;;11.24
71807;BMP280;59655;42.590;23.364;2023-04-25T06:23:30;90661.00;;;11.19
71807;BMP280;59655;42.590;23.364;2023-04-25T06:25:55;90660.84;;;11.27
71807;BMP280;59655;42.590;23.364;2023-04-25T06:28:21;90649.53;;;11.26
71807;BMP280;59655;42.590;23.364;2023-04-25T06:30:47;90655.69;;;11.29
71807;BMP280;59655;42.590;23.364;2023-04-25T06:33:12;90658.09;;;11.34
71807;BMP280;59655;42.590;23.364;2023-04-25T06:35:38;90653.19;;;11.40
71807;BMP280;59655;42.590;23.364;2023-04-25T06:38:03;90660.16;;;11.46
71807;BMP280;59655;42.590;23.364;2023-04-25T06:40:28;90650.50;;;11.50
71807;BMP280;59655;42.590;23.364;2023-04-25T06:42:54;90656.94;;;11.57
71807;BMP280;59655;42.590;23.364;2023-04-25T06:45:19;90659.16;;;11.60
71807;BMP280;59655;42.590;23.364;2023-04-25T06:47:45;90672.16;;;11.66
71807;BMP280;59655;42.590;23.364;2023-04-25T06:50:10;90669.09;;;11.70
71807;BMP280;59655;42.590;23.364;2023-04-25T06:52:36;90661.97;;;11.62
71807;BMP280;59655;42.590;23.364;2023-04-25T06:55:01;90669.66;;;11.68
71807;BMP280;59655;42.590;23.364;2023-04-25T06:57:26;90665.59;;;11.77
71807;BMP280;59655;42.590;23.364;2023-04-25T06:59:52;90672.56;;;11.82
71807;BMP280;59655;42.590;23.364;2023-04-25T07:02:18;90679.69;;;11.89
71807;BMP280;59655;42.590;23.364;2023-04-25T07:04:43;90673.81;;;11.91
71807;BMP280;59655;42.590;23.364;2023-04-25T07:07:10;90674.25;;;11.87
71807;BMP280;59655;42.590;23.364;2023-04-25T07:09:35;90672.84;;;11.86
71807;BMP280;59655;42.590;23.364;2023-04-25T07:12:01;90676.34;;;11.89
71807;BMP280;59655;42.590;23.364;2023-04-25T07:14:27;90675.22;;;11.92
71807;BMP280;59655;42.590;23.364;2023-04-25T07:16:52;90671.44;;;11.95
71807;BMP280;59655;42.590;23.364;2023-04-25T07:19:18;90679.00;;;11.98
71807;BMP280;59655;42.590;23.364;2023-04-25T07:21:43;90675.47;;;11.96
71807;BMP280;59655;42.590;23.364;2023-04-25T07:24:09;90680.22;;;11.97
71807;BMP280;59655;42.590;23.364;2023-04-25T07:26:34;90676.88;;;11.97
71807;BMP280;59655;42.590;23.364;2023-04-25T07:29:00;90678.84;;;11.96
71807;BMP280;59655;42.590;23.364;2023-04-25T07:31:25;90683.34;;;11.94
71807;BMP280;59655;42.590;23.364;2023-04-25T07:33:51;90677.44;;;11.95
71807;BMP280;59655;42.590;23.364;2023-04-25T07:36:16;90662.19;;;11.96
71807;BMP280;59655;42.590;23.364;2023-04-25T07:38:43;90668.91;;;11.97
71807;BMP280;59655;42.590;23.364;2023-04-25T07:41:08;90672.41;;;11.99
71807;BMP280;59655;42.590;23.364;2023-04-25T07:43:33;90669.75;;;11.99
71807;BMP280;59655;42.590;23.364;2023-04-25T07:45:59;90674.22;;;12.06
71807;BMP280;59655;42.590;23.364;2023-04-25T07:48:24;90665.38;;;12.14
71807;BMP280;59655;42.590;23.364;2023-04-25T07:50:50;90656.00;;;12.13
71807;BMP280;59655;42.590;23.364;2023-04-25T07:53:16;90662.28;;;12.17
71807;BMP280;59655;42.590;23.364;2023-04-25T07:55:42;90665.09;;;12.19
71807;BMP280;59655;42.590;23.364;2023-04-25T07:58:08;90658.97;;;12.07
71807;BMP280;59655;42.590;23.364;2023-04-25T08:00:34;90665.94;;;12.12
71807;BMP280;59655;42.590;23.364;2023-04-25T08:03:00;90658.91;;;12.17
71807;BMP280;59655;42.590;23.364;2023-04-25T08:05:27;90665.78;;;12.10
71807;BMP280;59655;42.590;23.364;2023-04-25T08:07:52;90662.03;;;12.13
71807;BMP280;59655;42.590;23.364;2023-04-25T08:10:19;90665.25;;;12.12
71807;BMP280;59655;42.590;23.364;2023-04-25T08:12:44;90662.44;;;12.10
71807;BMP280;59655;42.590;23.364;2023-04-25T08:15:10;90658.66;;;12.13
71807;BMP280;59655;42.590;23.364;2023-04-25T08:17:35;90656.13;;;12.15
71807;BMP280;59655;42.590;23.364;2023-04-25T08:20:01;90659.19;;;12.21
71807;BMP280;59655;42.590;23.364;2023-04-25T08:22:30;90665.38;;;12.23
71807;BMP280;59655;42.590;23.364;2023-04-25T08:24:55;90659.34;;;12.23
71807;BMP280;59655;42.590;23.364;2023-04-25T08:27:21;90655.53;;;12.26
71807;BMP280;59655;42.590;23.364;2023-04-25T08:29:47;90654.41;;;12.29
71807;BMP280;59655;42.590;23.364;2023-04-25T08:32:16;90646.66;;;12.43
71807;BMP280;59655;42.590;23.364;2023-04-25T08:34:41;90633.44;;;12.55
71807;BMP280;59655;42.590;23.364;2023-04-25T08:37:09;90644.91;;;12.57
71807;BMP280;59655;42.590;23.364;2023-04-25T08:39:36;90659.69;;;12.70
71807;BMP280;59655;42.590;23.364;2023-04-25T08:42:05;90664.06;;;12.65
71807;BMP280;59655;42.590;23.364;2023-04-25T08:44:33;90663.16;;;12.51
71807;BMP280;59655;42.590;23.364;2023-04-25T08:47:02;90659.66;;;12.48
71807;BMP280;59655;42.590;23.364;2023-04-25T08:49:29;90661.63;;;12.48
71807;BMP280;59655;42.590;23.364;2023-04-25T08:51:59;90658.81;;;12.46
71807;BMP280;59655;42.590;23.364;2023-04-25T08:54:27;90650.56;;;12.42
71807;BMP280;59655;42.590;23.364;2023-04-25T08:56:54;90649.19;;;12.41
71807;BMP280;59655;42.590;23.364;2023-04-25T08:59:21;90641.50;;;12.35
71807;BMP280;59655;42.590;23.364;2023-04-25T09:01:46;90638.53;;;12.41
71807;BMP280;59655;42.590;23.364;2023-04-25T09:04:12;90648.19;;;12.46
71807;BMP280;59655;42.590;23.364;2023-04-25T09:06:37;90644.34;;;12.59
71807;BMP280;59655;42.590;23.364;2023-04-25T09:09:05;90642.78;;;12.65
71807;BMP280;59655;42.590;23.364;2023-04-25T09:11:31;90647.25;;;12.63
71807;BMP280;59655;42.590;23.364;2023-04-25T09:14:17;90648.13;;;12.65
71807;BMP280;59655;42.590;23.364;2023-04-25T09:19:26;90644.97;;;12.69
71807;BMP280;59655;42.590;23.364;2023-04-25T09:21:56;90635.81;;;12.82
71807;BMP280;59655;42.590;23.364;2023-04-25T09:26:59;90627.50;;;12.87
71807;BMP280;59655;42.590;23.364;2023-04-25T09:29:31;90638.97;;;12.90
71807;BMP280;59655;42.590;23.364;2023-04-25T09:32:18;90631.13;;;12.92
71807;BMP280;59655;42.590;23.364;2023-04-25T09:34:49;90628.13;;;12.98
71807;BMP280;59655;42.590;23.364;2023-04-25T09:37:26;90636.97;;;13.00
71807;BMP280;59655;42.590;23.364;2023-04-25T09:39:55;90640.56;;;13.05
71807;BMP280;59655;42.590;23.364;2023-04-25T09:42:24;90635.13;;;13.03
71807;BMP280;59655;42.590;23.364;2023-04-25T09:44:54;90630.25;;;12.99
71807;BMP280;59655;42.590;23.364;2023-04-25T09:47:22;90631.03;;;13.02
71807;BMP280;59655;42.590;23.364;2023-04-25T09:49:48;90632.31;;;13.01
71807;BMP280;59655;42.590;23.364;2023-04-25T09:52:18;90644.13;;;12.98
71807;BMP280;59655;42.590;23.364;2023-04-25T09:54:46;90638.97;;;12.90
71807;BMP280;59655;42.590;23.364;2023-04-25T09:57:23;90645.50;;;12.77
71807;BMP280;59655;42.590;23.364;2023-04-25T09:59:50;90653.28;;;12.63
71807;BMP280;59655;42.590;23.364;2023-04-25T10:02:19;90643.81;;;12.19
71807;BMP280;59655;42.590;23.364;2023-04-25T10:04:48;90650.66;;;12.22
71807;BMP280;59655;42.590;23.364;2023-04-25T10:07:14;90642.72;;;12.44
71807;BMP280;59655;42.590;23.364;2023-04-25T10:09:40;90631.03;;;12.59
71807;BMP280;59655;42.590;23.364;2023-04-25T10:12:07;90633.78;;;12.70
71807;BMP280;59655;42.590;23.364;2023-04-25T10:14:33;90621.88;;;12.71
71807;BMP280;59655;42.590;23.364;2023-04-25T10:16:59;90624.41;;;12.69
71807;BMP280;59655;42.590;23.364;2023-04-25T10:19:26;90625.03;;;12.58
71807;BMP280;59655;42.590;23.364;2023-04-25T10:22:08;90632.75;;;12.54
71807;BMP280;59655;42.590;23.364;2023-04-25T10:24:37;90623.09;;;12.49
71807;BMP280;59655;42.590;23.364;2023-04-25T10:27:04;90622.41;;;12.48
71807;BMP280;59655;42.590;23.364;2023-04-25T10:29:30;90617.75;;;12.59
71807;BMP280;59655;42.590;23.364;2023-04-25T10:31:56;90622.28;;;12.68
71807;BMP280;59655;42.590;23.364;2023-04-25T10:34:38;90620.38;;;12.80
71807;BMP280;59655;42.590;23.364;2023-04-25T10:37:05;90617.31;;;12.84
71807;BMP280;59655;42.590;23.364;2023-04-25T10:39:32;90624.16;;;12.87
71807;BMP280;59655;42.590;23.364;2023-04-25T10:42:02;90623.25;;;12.94
71807;BMP280;59655;42.590;23.364;2023-04-25T10:44:31;90630.16;;;12.87
71807;BMP280;59655;42.590;23.364;2023-04-25T10:46:58;90624.16;;;12.87
71807;BMP280;59655;42.590;23.364;2023-04-25T10:49:37;90624.59;;;12.83
71807;BMP280;59655;42.590;23.364;2023-04-25T10:52:25;90633.84;;;12.82
71807;BMP280;59655;42.590;23.364;2023-04-25T10:54:56;90633.47;;;12.76
71807;BMP280;59655;42.590;23.364;2023-04-25T10:57:31;90644.97;;;12.79
71807;BMP280;59655;42.590;23.364;2023-04-25T11:00:08;90636.94;;;12.57
71807;BMP280;59655;42.590;23.364;2023-04-25T11:02:40;90640.78;;;12.44
71807;BMP280;59655;42.590;23.364;2023-04-25T11:05:06;90648.56;;;12.31
71807;BMP280;59655;42.590;23.364;2023-04-25T11:10:04;90639.50;;;12.04
71807;BMP280;59655;42.590;23.364;2023-04-25T11:12:30;90631.84;;;11.89
71807;BMP280;59655;42.590;23.364;2023-04-25T11:15:04;90630.78;;;11.73
71807;BMP280;59655;42.590;23.364;2023-04-25T11:17:30;90618.16;;;11.93
71807;BMP280;59655;42.590;23.364;2023-04-25T11:19:55;90617.91;;;12.20
71807;BMP280;59655;42.590;23.364;2023-04-25T11:22:22;90605.78;;;12.38
71807;BMP280;59655;42.590;23.364;2023-04-25T11:24:47;90598.59;;;12.50
71807;BMP280;59655;42.590;23.364;2023-04-25T11:27:13;90597.72;;;12.58
71807;BMP280;59655;42.590;23.364;2023-04-25T11:29:38;90601.19;;;12.60
71807;BMP280;59655;42.590;23.364;2023-04-25T11:32:04;90613.56;;;12.77
71807;BMP280;59655;42.590;23.364;2023-04-25T11:34:31;90604.22;;;12.88
71807;BMP280;59655;42.590;23.364;2023-04-25T11:36:58;90604.59;;;12.94
71807;BMP280;59655;42.590;23.364;2023-04-25T11:39:24;90610.53;;;12.92
71807;BMP280;59655;42.590;23.364;2023-04-25T11:41:50;90596.97;;;12.88
71807;BMP280;59655;42.590;23.364;2023-04-25T11:44:16;90591.50;;;12.86
71807;BMP280;59655;42.590;23.364;2023-04-25T11:46:43;90610.72;;;12.85
71807;BMP280;59655;42.590;23.364;2023-04-25T11:49:08;90619.03;;;12.79
71807;BMP280;59655;42.590;23.364;2023-04-25T11:51:45;90624.16;;;12.65
71807;BMP280;59655;42.590;23.364;2023-04-25T11:54:11;90632.56;;;12.62
71807;BMP280;59655;42.590;23.364;2023-04-25T11:56:37;90634.66;;;12.63
71807;BMP280;59655;42.590;23.364;2023-04-25T11:59:04;90631.84;;;12.61
71807;BMP280;59655;42.590;23.364;2023-04-25T12:01:38;90663.41;;;12.14
71807;BMP280;59655;42.590;23.364;2023-04-25T12:04:14;90657.88;;;11.81
71807;BMP280;59655;42.590;23.364;2023-04-25T12:06:41;90659.72;;;11.69
71807;BMP280;59655;42.590;23.364;2023-04-25T12:09:09;90650.66;;;11.72
71807;BMP280;59655;42.590;23.364;2023-04-25T12:11:46;90629.38;;;11.72
71807;BMP280;59655;42.590;23.364;2023-04-25T12:14:19;90611.19;;;11.78
71807;BMP280;59655;42.590;23.364;2023-04-25T12:16:46;90607.66;;;11.95
71807;BMP280;59655;42.590;23.364;2023-04-25T12:19:19;90600.03;;;12.11
71807;BMP280;59655;42.590;23.364;2023-04-25T12:21:45;90612.38;;;12.06
71807;BMP280;59655;42.590;23.364;2023-04-25T12:24:29;90604.06;;;12.21
71807;BMP280;59655;42.590;23.364;2023-04-25T12:27:05;90610.72;;;12.63
71807;BMP280;59655;42.590;23.364;2023-04-25T12:29:32;90609.25;;;12.93
71807;BMP280;59655;42.590;23.364;2023-04-25T12:31:58;90606.16;;;13.64
71807;BMP280;59655;42.590;23.364;2023-04-25T12:34:25;90607.50;;;14.21
71807;BMP280;59655;42.590;23.364;2023-04-25T12:36:52;90607.94;;;13.94
71807;BMP280;59655;42.590;23.364;2023-04-25T12:39:18;90605.75;;;13.91
71807;BMP280;59655;42.590;23.364;2023-04-25T12:41:51;90603.09;;;13.91
71807;BMP280;59655;42.590;23.364;2023-04-25T12:44:20;90599.56;;;13.88
71807;BMP280;59655;42.590;23.364;2023-04-25T12:46:46;90596.78;;;13.86
71807;BMP280;59655;42.590;23.364;2023-04-25T12:49:12;90615.91;;;13.82
71807;BMP280;59655;42.590;23.364;2023-04-25T12:51:37;90639.06;;;13.68
71807;BMP280;59655;42.590;23.364;2023-04-25T12:54:04;90637.91;;;13.26
71807;BMP280;59655;42.590;23.364;2023-04-25T12:56:31;90636.22;;;13.43
71807;BMP280;59655;42.590;23.364;2023-04-25T12:58:56;90628.31;;;13.33
71807;BMP280;59655;42.590;23.364;2023-04-25T13:01:22;90636.56;;;13.15
71807;BMP280;59655;42.590;23.364;2023-04-25T13:03:48;90641.19;;;13.15
71807;BMP280;59655;42.590;23.364;2023-04-25T13:06:14;90642.22;;;13.10
71807;BMP280;59655;42.590;23.364;2023-04-25T13:08:40;90641.84;;;13.04
71807;BMP280;59655;42.590;23.364;2023-04-25T13:11:06;90635.63;;;12.89
71807;BMP280;59655;42.590;23.364;2023-04-25T13:13:32;90620.28;;;12.78
71807;BMP280;59655;42.590;23.364;2023-04-25T13:16:02;90639.88;;;13.04
71807;BMP280;59655;42.590;23.364;2023-04-25T13:18:31;90621.94;;;13.71
71807;BMP280;59655;42.590;23.364;2023-04-25T13:20:58;90645.03;;;14.72
71807;BMP280;59655;42.590;23.364;2023-04-25T13:23:25;90645.75;;;14.14
71807;BMP280;59655;42.590;23.364;2023-04-25T13:25:52;90630.53;;;13.93
71807;BMP280;59655;42.590;23.364;2023-04-25T13:28:17;90646.59;;;12.84
71807;BMP280;59655;42.590;23.364;2023-04-25T13:30:43;90635.28;;;12.52
71807;BMP280;59655;42.590;23.364;2023-04-25T13:33:09;90625.59;;;13.00
71807;BMP280;59655;42.590;23.364;2023-04-25T13:35:36;90635.13;;;12.81
71807;BMP280;59655;42.590;23.364;2023-04-25T13:38:03;90620.03;;;13.50
71807;BMP280;59655;42.590;23.364;2023-04-25T13:40:28;90628.94;;;13.55
71807;BMP280;59655;42.590;23.364;2023-04-25T13:42:55;90623.16;;;13.13
71807;BMP280;59655;42.590;23.364;2023-04-25T13:45:20;90629.38;;;12.54
71807;BMP280;59655;42.590;23.364;2023-04-25T13:47:46;90622.69;;;12.12
71807;BMP280;59655;42.590;23.364;2023-04-25T13:50:12;90631.91;;;11.60
71807;BMP280;59655;42.590;23.364;2023-04-25T13:52:39;90628.00;;;11.32
71807;BMP280;59655;42.590;23.364;2023-04-25T13:55:04;90626.91;;;11.25
71807;BMP280;59655;42.590;23.364;2023-04-25T13:57:32;90622.56;;;11.10
71807;BMP280;59655;42.590;23.364;2023-04-25T13:59:58;90633.06;;;11.18
71807;BMP280;59655;42.590;23.364;2023-04-25T14:02:24;90626.03;;;11.13